• Join FlightAware (Why Join?)
  • Login
  • US Flag 
02:08AM EDT


 

Airport Tracker/Info


-or-


 

Live Flight TrackerFlight Track Log ✈ DAL6091 ✈ 11-Dec-2013 ✈ KLGA - KSDF

Flight Track Log - Related Links

Times and Time Zones

All times are in EST time to prevent confusion due to time zone crossing. See the DAL6091 flight status page for this flight to view local times or setup timezone preferences in your user account.

Time Position Orientation Groundspeed Altitude Reporting Facility
EST Latitude Longitude Course Direction KTS MPH feet Rate Location/Type
02:25PM 40.8333 -73.9167 270° West 200 230 3,100  Level New York TRACON
02:26PM 40.8833 -73.9667 323° Northwest 216 249 6,100 2,820 Climbing New York TRACON
02:27PM 40.7340 -74.1386 264° West  Level Estimated
02:27PM 40.8833 -74.0333 270° West 210 242 8,800  Level New York TRACON
02:28PM 40.7194 -74.2272 264° West  Level Estimated
02:28PM 40.8667 -74.1000 252° West 208 239 11,400  Level New York TRACON
02:29PM 40.7189 -74.3178 270° West  Level FlightAware Approximate
02:29PM 40.8500 -74.2000 258° West 250 288 12,900  Level New York TRACON
02:30PM 40.7184 -74.4085 270° West  Level FlightAware Approximate
02:30PM 40.8333 -74.2833 255° West 265 305 14,700  Level New York TRACON
02:31PM 40.8167 -74.3667 255° West 258 297 16,600 1,140 Climbing New York TRACON
02:32PM 40.8000 -74.4833 259° West 276 318 17,000 180 Climbing New York TRACON
02:34PM 40.7697 -74.6208 254° West 279 321 17,100 300 Climbing New York Center
02:36PM 40.7339 -74.8186 257° West 279 321 18,100 660 Climbing New York Center
02:37PM 40.7133 -74.9325 257° West 279 321 19,100 960 Climbing New York Center
02:38PM 40.6931 -75.0325 255° West 284 327 20,100 960 Climbing New York Center
02:39PM 40.6603 -75.1317 246° West 289 333 21,100 900 Climbing New York Center
02:40PM 40.6172 -75.2247 239° Southwest 295 339 22,000 900 Climbing New York Center
02:41PM 40.5761 -75.3178 240° Southwest 300 345 23,000 960 Climbing New York Center
02:42PM 40.5331 -75.4078 238° Southwest 306 352 24,000 900 Climbing New York Center
02:43PM 40.4919 -75.5003 240° Southwest 301 346 24,900 900 Climbing New York Center
02:44PM 40.4506 -75.5903 239° Southwest 301 346 25,900 960 Climbing New York Center
02:45PM 40.4094 -75.6772 238° Southwest 301 346 26,900 900 Climbing New York Center
02:46PM 40.3728 -75.7592 240° Southwest 296 341 27,800 900 Climbing New York Center
02:47PM 40.3336 -75.8461 239° Southwest 286 329 28,800 900 Climbing New York Center
02:48PM 40.2903 -75.9303 236° Southwest 286 329 29,700 900 Climbing New York Center
02:49PM 40.2492 -76.0169 238° Southwest 292 336 30,700 960 Climbing New York Center
02:51PM 40.1536 -76.2267 239° Southwest 283 326 33,000 960 Climbing Washington Center
02:52PM 40.1114 -76.3131 237° Southwest 283 326 34,000 480 Climbing Washington Center
02:53PM 40.0714 -76.4019 240° Southwest 283 326 34,000  Level Washington Center
02:54PM 40.0333 -76.4828 238° Southwest 283 326 34,000  Level Washington Center
02:55PM 40.0014 -76.5475 237° Southwest 272 313 34,000  Level Washington Center
02:56PM 39.9592 -76.6444 240° Southwest 272 313 34,000  Level Washington Center
02:57PM 39.9208 -76.7194 236° Southwest 267 307 34,000  Level Washington Center
02:58PM 39.8825 -76.8000 238° Southwest 267 307 34,000  Level Washington Center
02:59PM 39.8486 -76.8778 240° Southwest 262 302 34,100  Climbing Washington Center
03:00PM 39.8081 -76.9528 235° Southwest 256 295 34,000 -60 Descending Washington Center
03:01PM 39.7739 -77.0331 241° Southwest 256 295 34,000  Level Washington Center
03:02PM 39.7375 -77.1106 239° Southwest 256 295 34,000  Level Washington Center
03:03PM 39.6989 -77.1881 237° Southwest 256 295 34,000  Level Washington Center
03:04PM 39.6625 -77.2681 239° Southwest 256 295 34,000  Level Washington Center
03:05PM 39.6258 -77.3481 239° Southwest 256 295 34,000  Level Washington Center
03:06PM 39.5872 -77.4281 238° Southwest 256 295 34,000  Level Washington Center
03:07PM 39.5483 -77.5078 238° Southwest 261 300 34,000  Level Washington Center
03:08PM 39.5117 -77.5875 239° Southwest 261 300 34,000  Level Washington Center
03:09PM 39.4728 -77.6669 238° Southwest 266 306 34,000  Level Washington Center
03:10PM 39.4339 -77.7492 239° Southwest 271 312 34,000  Level Washington Center
03:11PM 39.3947 -77.8339 239° Southwest 277 319 34,000  Level Washington Center
03:12PM 39.3578 -77.9161 240° Southwest 272 313 34,000  Level Washington Center
03:13PM 39.3250 -77.9983 243° Southwest 267 307 34,000  Level Washington Center
03:14PM 39.2919 -78.0831 243° Southwest 262 302 34,000  Level Washington Center
03:15PM 39.2589 -78.1703 244° Southwest 262 302 34,000  Level Washington Center
03:16PM 39.2239 -78.2519 241° Southwest 262 302 34,000  Level Washington Center
03:17PM 39.1883 -78.3392 242° Southwest 262 302 34,000  Level Washington Center
03:18PM 39.1553 -78.4236 243° Southwest 262 302 34,000  Level Washington Center
03:19PM 39.1322 -78.5111 251° West 262 302 34,000  Level Washington Center
03:20PM 39.1114 -78.6011 253° West 262 302 34,000  Level Washington Center
03:21PM 39.0925 -78.6914 255° West 262 302 34,000  Level Washington Center
03:22PM 39.0733 -78.7786 254° West 262 302 34,000  Level Washington Center
03:23PM 39.0522 -78.8686 253° West 262 302 34,000  Level Washington Center
03:24PM 39.0311 -78.9558 253° West 262 302 34,000  Level Washington Center
03:25PM 39.0117 -79.0486 255° West 262 302 34,000  Level Washington Center
03:26PM 38.9906 -79.1356 253° West 262 302 34,000  Level Washington Center
03:27PM 38.9711 -79.2256 254° West 262 302 34,000  Level Washington Center
03:28PM 38.9497 -79.3153 253° West 262 302 34,000  Level Washington Center
03:29PM 38.9281 -79.4022 252° West 262 302 34,000  Level Washington Center
03:30PM 38.9086 -79.4919 254° West 262 302 34,000  Level Washington Center
03:31PM 38.8869 -79.5789 252° West 262 302 34,000  Level Washington Center
03:32PM 38.8692 -79.6739 257° West 268 308 34,000  Level Washington Center
03:33PM 38.8494 -79.7606 254° West 268 308 34,000  Level Washington Center
03:34PM 38.8275 -79.8500 253° West 263 303 34,000  Level Washington Center
03:35PM 38.8000 -79.9522 251° West 255 293 34,000  Level Indianapolis Center
03:36PM 38.7775 -80.0400 252° West 257 296 34,000  Level Indianapolis Center
03:37PM 38.7583 -80.1275 254° West 256 295 34,000  Level Indianapolis Center
03:38PM 38.7367 -80.2142 252° West 255 293 34,000  Level Indianapolis Center
03:39PM 38.7161 -80.2997 253° West 253 291 34,000  Level Indianapolis Center
03:40PM 38.6956 -80.3856 253° West 252 290 34,000  Level Indianapolis Center
03:41PM 38.6747 -80.4697 252° West 249 287 34,000  Level Indianapolis Center
03:42PM 38.6508 -80.5686 253° West 242 278 34,000  Level Indianapolis Center
03:43PM 38.6300 -80.6522 252° West 245 282 34,000  Level Indianapolis Center
03:44PM 38.6106 -80.7347 253° West 244 281 34,000  Level Indianapolis Center
03:45PM 38.5897 -80.8172 252° West 242 278 34,000  Level Indianapolis Center
03:47PM 38.5700 -80.8989 253° West 241 277 34,000  Level Indianapolis Center
03:48PM 38.5489 -80.9808 252° West 240 276 34,000  Level Indianapolis Center
03:49PM 38.5289 -81.0622 253° West 240 276 34,000  Level Indianapolis Center
03:50PM 38.5044 -81.1597 252° West 240 276 34,000  Level Indianapolis Center
03:51PM 38.4844 -81.2417 253° West 241 277 34,000  Level Indianapolis Center
03:52PM 38.4636 -81.3222 252° West 238 274 34,000  Level Indianapolis Center
03:53PM 38.4431 -81.4028 252° West 236 272 34,000  Level Indianapolis Center
03:54PM 38.4236 -81.4828 253° West 235 270 34,000  Level Indianapolis Center
03:55PM 38.4028 -81.5625 252° West 235 270 34,000  Level Indianapolis Center
03:56PM 38.3828 -81.6422 252° West 235 270 34,000  Level Indianapolis Center
03:57PM 38.3619 -81.7217 252° West 237 273 34,000  Level Indianapolis Center
03:58PM 38.3372 -81.8156 251° West 233 268 34,000  Level Indianapolis Center
03:59PM 38.3150 -81.8947 250° West 236 272 34,000  Level Indianapolis Center
04:00PM 38.2936 -81.9725 251° West 233 268 34,000  Level Indianapolis Center
04:01PM 38.2708 -82.0511 250° West 235 270 34,000  Level Indianapolis Center
04:02PM 38.2492 -82.1297 251° West 235 270 34,000  Level Indianapolis Center
04:03PM 38.2261 -82.2081 249° West 236 272 34,000  Level Indianapolis Center
04:04PM 38.1989 -82.3028 250° West 236 272 34,000 -60 Level Indianapolis Center
04:05PM 38.1769 -82.3822 251° West 237 273 33,900 -540 Descending Indianapolis Center
04:06PM 38.1536 -82.4622 250° West 240 276 32,900 -960 Descending Indianapolis Center
04:07PM 38.1278 -82.5522 250° West 248 285 32,000 -480 Descending Indianapolis Center
04:08PM 38.1044 -82.6344 250° West 247 284 32,000  Level Indianapolis Center
04:09PM 38.0806 -82.7178 250° West 251 289 32,000  Level Indianapolis Center
04:10PM 38.0567 -82.8011 250° West 251 289 32,000  Level Indianapolis Center
04:11PM 38.0319 -82.8847 249° West 254 292 32,000  Level Indianapolis Center
04:12PM 38.0039 -82.9833 250° West 255 293 32,000  Level Indianapolis Center
04:13PM 37.9792 -83.0661 249° West 252 290 32,000 -60 Level Indianapolis Center
04:14PM 37.9553 -83.1514 250° West 255 293 31,900 -660 Descending Indianapolis Center
04:15PM 37.9300 -83.2339 249° West 253 291 30,700 -1,020 Descending Indianapolis Center
04:17PM 37.9044 -83.3192 249° West 258 297 29,800 -1,200 Descending Indianapolis Center
04:18PM 37.8750 -83.4214 250° West 263 303 28,300 -900 Descending Indianapolis Center
04:19PM 37.8478 -83.5142 250° West 278 320 28,000 -600 Descending Indianapolis Center
04:20PM 37.8189 -83.6092 249° West 288 331 27,100 -960 Descending Indianapolis Center
04:21PM 37.7900 -83.7069 250° West 296 341 26,100 -1,020 Descending Indianapolis Center
04:22PM 37.7592 -83.8086 249° West 308 354 25,000 -1,020 Descending Indianapolis Center
04:23PM 37.7225 -83.9278 249° West 312 359 24,000 -540 Descending Indianapolis Center
04:24PM 37.6931 -84.0272 250° West 306 352 24,000 -300 Level Indianapolis Center
04:25PM 37.6636 -84.1236 249° West 297 342 23,400 -780 Descending Indianapolis Center
04:26PM 37.6328 -84.2225 249° West 301 346 22,500 -960 Descending Indianapolis Center
04:27PM 37.6025 -84.3208 249° West 301 346 21,500 -1,380 Descending Indianapolis Center
04:28PM 37.5694 -84.4319 249° West 293 337 19,700 -1,680 Descending Indianapolis Center
04:29PM 37.5411 -84.5200 248° West 275 316 18,000 -1,440 Descending Indianapolis Center
04:30PM 37.5147 -84.6081 249° West 269 310 16,800 -1,440 Descending Indianapolis Center
04:31PM 37.4908 -84.6969 251° West 269 310 15,100 -1,680 Descending Indianapolis Center
04:32PM 37.5281 -84.7800 299° West 281 323 13,400 -1,800 Descending Indianapolis Center
04:33PM 37.5900 -84.8650 313° West 285 328 11,400 -1,620 Descending Indianapolis Center
04:34PM 37.6422 -84.9378 312° West 281 323 10,100 -720 Descending Indianapolis Center
04:35PM 37.6967 -85.0117 313° West 285 328 10,000 -60 Descending Indianapolis Center
04:36PM 37.7417 -85.0861 307° West 269 310 10,000  Level Indianapolis Center
04:37PM 37.7628 -85.1778 286° West 272 313 10,000 -360 Level Indianapolis Center
04:38PM 37.7847 -85.2542 290° West 230 265 9,300 -1,320 Descending Indianapolis Center
04:39PM 37.8111 -85.3328 293° West 209 241 7,300 -1,800 Descending Indianapolis Center
04:40PM 37.8439 -85.3969 303° West 213 245 5,600 -1,080 Descending Indianapolis Center
04:41PM 37.8725 -85.4594 300° West 211 243 5,100 -600 Descending Indianapolis Center
04:45PM 38.0000 -85.6500 324° Northwest 205 236 3,000 -600 Descending Louisville TRACON
04:47PM 38.1167 -85.7000 341° North 133 153 1,600 -600 Descending Louisville TRACON